Temp: 0.4°C   Baro: 1011.5mb
  Wind: 0.0mph   Dir: N (352°)
  Rain: 0.0mm (0.0mm/hr)
  Solar: 0W/m2  Hum: 85%

Historic data

Bath Spa Weather Station Historical Data
Daily Summary for October 6, 2021 Units:  Metric    English   Both
Daily Weekly Monthly Yearly Custom
  High: Low: Average:
Temperature: 16.2 °C 9.2 °C 12.5 °C
Dew Point: 11.6 °C 7.6 °C 9.6 °C
Humidity: 88% 69.2% 80%
Wind Speed: 19km/h 0km/h 6.6km/h
Wind Gust: 30.6km/h - -
Wind- - WNW
Pressure: 1024.3 hPa 1014.1 hPa -
Precipitation: 0 mm    
Historical Graphs
 
 
Tabular Data for October 6, 2021
Time Temperature Dew Point Pressure Wind Wind Speed Wind Gust Humidity Rainfall Rate (Hourly) solar
00:04 10.3 °C 8.6 °C 1014.1 hPa WNW 6.6 km/h 14.5 km/h 86% 0 mm 0 W/m2
00:09 10.3 °C 8.6 °C 1014.1 hPa WNW 6.1 km/h 12.9 km/h 86% 0 mm 0 W/m2
00:14 10.3 °C 8.6 °C 1014.1 hPa WNW 6.4 km/h 12.9 km/h 86% 0 mm 0 W/m2
00:19 10.4 °C 8.6 °C 1014.1 hPa WNW 8.4 km/h 12.9 km/h 86% 0 mm 0 W/m2
00:24 10.4 °C 8.7 °C 1014.1 hPa NW 7.7 km/h 17.7 km/h 86% 0 mm 0 W/m2
00:29 10.6 °C 8.8 °C 1014.1 hPa WNW 7.7 km/h 16.1 km/h 86% 0 mm 0 W/m2
00:34 10.6 °C 8.8 °C 1014.4 hPa WNW 7.2 km/h 17.7 km/h 86% 0 mm 0 W/m2
00:39 10.6 °C 8.8 °C 1014.4 hPa WNW 8.7 km/h 14.5 km/h 85.8% 0 mm 0 W/m2
00:44 10.5 °C 8.7 °C 1014.4 hPa WNW 6.4 km/h 12.9 km/h 86% 0 mm 0 W/m2
00:49 10.4 °C 8.6 °C 1014.4 hPa WNW 6 km/h 11.3 km/h 86% 0 mm 0 W/m2
00:54 10.4 °C 8.6 °C 1014.4 hPa WNW 6.6 km/h 16.1 km/h 86% 0 mm 0 W/m2
00:59 10.4 °C 8.6 °C 1014.4 hPa WNW 5.8 km/h 16.1 km/h 86% 0 mm 0 W/m2
01:04 10.4 °C 8.6 °C 1014.4 hPa WNW 9.3 km/h 14.5 km/h 86% 0 mm 0 W/m2
01:09 10.4 °C 8.6 °C 1014.4 hPa WNW 6.9 km/h 14.5 km/h 86% 0 mm 0 W/m2
01:14 10.4 °C 8.6 °C 1014.4 hPa WNW 8.4 km/h 12.9 km/h 86% 0 mm 0 W/m2
01:19 10.3 °C 8.6 °C 1014.8 hPa WNW 6.3 km/h 11.3 km/h 86% 0 mm 0 W/m2
01:24 10.3 °C 8.6 °C 1014.8 hPa WNW 6.1 km/h 11.3 km/h 86% 0 mm 0 W/m2
01:29 10.3 °C 8.6 °C 1014.8 hPa WNW 8 km/h 16.1 km/h 86% 0 mm 0 W/m2
01:34 10.4 °C 8.6 °C 1014.8 hPa WNW 9.3 km/h 16.1 km/h 86% 0 mm 0 W/m2
01:39 10.4 °C 8.6 °C 1015.1 hPa WNW 7.7 km/h 14.5 km/h 86% 0 mm 0 W/m2
01:44 10.4 °C 8.6 °C 1015.1 hPa WNW 11.1 km/h 17.7 km/h 86% 0 mm 0 W/m2
01:49 10.5 °C 8.7 °C 1015.1 hPa WNW 7.7 km/h 17.7 km/h 86% 0 mm 0 W/m2
01:54 10.5 °C 8.7 °C 1015.1 hPa WNW 10.9 km/h 19.3 km/h 86% 0 mm 0 W/m2
01:59 10.6 °C 8.8 °C 1015.1 hPa WNW 11.3 km/h 19.3 km/h 86% 0 mm 0 W/m2
02:04 10.5 °C 8.7 °C 1015.1 hPa WNW 10.1 km/h 16.1 km/h 86% 0 mm 0 W/m2
02:09 10.6 °C 8.8 °C 1015.1 hPa WNW 12.2 km/h 20.9 km/h 86% 0 mm 0 W/m2
02:14 10.6 °C 8.8 °C 1015.5 hPa WNW 7.9 km/h 17.7 km/h 86% 0 mm 0 W/m2
02:19 10.4 °C 8.7 °C 1015.5 hPa WNW 9.8 km/h 14.5 km/h 86% 0 mm 0 W/m2
02:24 10.4 °C 8.6 °C 1015.5 hPa WNW 9.3 km/h 16.1 km/h 86% 0 mm 0 W/m2
02:29 10.4 °C 8.6 °C 1015.5 hPa WNW 6.4 km/h 14.5 km/h 86% 0 mm 0 W/m2
02:34 10.4 °C 8.6 °C 1015.5 hPa WNW 8.4 km/h 14.5 km/h 86% 0 mm 0 W/m2
02:39 10.3 °C 8.6 °C 1015.8 hPa WNW 7.4 km/h 16.1 km/h 86% 0 mm 0 W/m2
02:44 10.3 °C 8.6 °C 1015.8 hPa WNW 8.5 km/h 14.5 km/h 86% 0 mm 0 W/m2
02:49 10.3 °C 8.6 °C 1016.1 hPa WNW 8.7 km/h 16.1 km/h 86% 0 mm 0 W/m2
02:54 10.3 °C 8.6 °C 1016.1 hPa WNW 4.7 km/h 11.3 km/h 86% 0 mm 0 W/m2
02:59 10.3 °C 8.6 °C 1016.1 hPa WNW 7.1 km/h 11.3 km/h 86% 0 mm 0 W/m2
03:04 10.3 °C 8.6 °C 1016.1 hPa WNW 6.8 km/h 11.3 km/h 86% 0 mm 0 W/m2
03:09 10.3 °C 8.6 °C 1016.1 hPa WNW 6.4 km/h 14.5 km/h 86% 0 mm 0 W/m2
03:14 10.3 °C 8.6 °C 1016.1 hPa WNW 7.9 km/h 14.5 km/h 86% 0 mm 0 W/m2
03:19 10.3 °C 8.6 °C 1016.1 hPa WNW 6.6 km/h 12.9 km/h 86% 0 mm 0 W/m2
03:24 10.2 °C 8.5 °C 1016.1 hPa WNW 5 km/h 12.9 km/h 86% 0 mm 0 W/m2
03:29 10.2 °C 8.5 °C 1016.1 hPa WNW 5.1 km/h 9.7 km/h 86% 0 mm 0 W/m2
03:34 10.2 °C 8.5 °C 1016.1 hPa WNW 4.5 km/h 8 km/h 86% 0 mm 0 W/m2
03:39 10.2 °C 8.4 °C 1016.1 hPa WNW 4.7 km/h 9.7 km/h 86% 0 mm 0 W/m2
03:44 10.1 °C 8.4 °C 1016.1 hPa WNW 2.7 km/h 6.4 km/h 86% 0 mm 0 W/m2
03:49 10.1 °C 8.4 °C 1016.1 hPa WNW 2.7 km/h 6.4 km/h 86% 0 mm 0 W/m2
03:54 9.9 °C 8.2 °C 1016.1 hPa WNW 3.4 km/h 6.4 km/h 86% 0 mm 0 W/m2
03:59 9.9 °C 8.2 °C 1016.5 hPa WNW 3.9 km/h 6.4 km/h 86% 0 mm 0 W/m2
04:04 9.9 °C 8.2 °C 1016.5 hPa WNW 2.9 km/h 4.8 km/h 86% 0 mm 0 W/m2
04:09 9.9 °C 8.2 °C 1016.5 hPa WNW 2.6 km/h 8 km/h 86% 0 mm 0 W/m2
04:14 9.8 °C 8.1 °C 1016.1 hPa WNW 3.9 km/h 8 km/h 86% 0 mm 0 W/m2
04:19 9.8 °C 8.1 °C 1016.5 hPa WNW 2.7 km/h 4.8 km/h 86% 0 mm 0 W/m2
04:24 9.8 °C 8.1 °C 1016.5 hPa WNW 3.2 km/h 6.4 km/h 86% 0 mm 0 W/m2
04:29 9.7 °C 8.1 °C 1016.5 hPa WNW 4 km/h 6.4 km/h 86% 0 mm 0 W/m2
04:34 9.6 °C 7.9 °C 1016.5 hPa WNW 3.9 km/h 6.4 km/h 86% 0 mm 0 W/m2
04:39 9.6 °C 7.9 °C 1016.5 hPa WNW 2.9 km/h 6.4 km/h 86% 0 mm 0 W/m2
04:44 9.6 °C 7.9 °C 1016.8 hPa WNW 3.4 km/h 6.4 km/h 86% 0 mm 0 W/m2
04:49 9.6 °C 7.9 °C 1016.8 hPa WNW 1.6 km/h 6.4 km/h 86% 0 mm 0 W/m2
04:54 9.6 °C 7.8 °C 1016.8 hPa WNW 1 km/h 4.8 km/h 86% 0 mm 0 W/m2
04:59 9.4 °C 7.7 °C 1016.8 hPa WNW 1.9 km/h 8 km/h 86% 0 mm 0 W/m2
05:04 9.3 °C 7.7 °C 1016.8 hPa WNW 4.5 km/h 8 km/h 86.4% 0 mm 0 W/m2
05:09 9.3 °C 7.7 °C 1016.8 hPa WNW 5.1 km/h 8 km/h 87% 0 mm 0 W/m2
05:14 9.4 °C 7.8 °C 1016.8 hPa WNW 6.4 km/h 12.9 km/h 87% 0 mm 0 W/m2
05:19 9.4 °C 7.8 °C 1016.8 hPa WNW 6.6 km/h 12.9 km/h 87% 0 mm 0 W/m2
05:24 9.4 °C 7.8 °C 1016.8 hPa WNW 7.6 km/h 12.9 km/h 87% 0 mm 0 W/m2
05:29 9.6 °C 7.9 °C 1017.2 hPa WNW 7.9 km/h 12.9 km/h 87% 0 mm 0 W/m2
05:34 9.6 °C 8 °C 1017.2 hPa WNW 6.1 km/h 8 km/h 87% 0 mm 0 W/m2
05:39 9.5 °C 7.8 °C 1017.5 hPa WNW 6.1 km/h 12.9 km/h 86.4% 0 mm 0 W/m2
05:44 9.5 °C 7.8 °C 1017.5 hPa WNW 5.3 km/h 12.9 km/h 86% 0 mm 0 W/m2
05:49 9.4 °C 7.8 °C 1017.2 hPa WNW 6 km/h 9.7 km/h 86% 0 mm 0 W/m2
05:54 9.4 °C 7.7 °C 1017.2 hPa WNW 5.1 km/h 9.7 km/h 86% 0 mm 0 W/m2
05:59 9.4 °C 7.7 °C 1017.5 hPa WNW 5 km/h 11.3 km/h 86.6% 0 mm 0 W/m2
06:04 9.4 °C 7.8 °C 1017.5 hPa WNW 8.4 km/h 12.9 km/h 87% 0 mm 0 W/m2
06:09 9.4 °C 7.8 °C 1017.5 hPa WNW 7.2 km/h 12.9 km/h 86.8% 0 mm 0 W/m2
06:14 9.4 °C 7.8 °C 1017.5 hPa WNW 5.8 km/h 12.9 km/h 87% 0 mm 0 W/m2
06:19 9.3 °C 7.7 °C 1017.8 hPa WNW 8.7 km/h 16.1 km/h 87% 0 mm 0 W/m2
06:24 9.4 °C 7.8 °C 1017.8 hPa West 8.4 km/h 14.5 km/h 87% 0 mm 0 W/m2
06:29 9.4 °C 7.8 °C 1017.8 hPa West 7.7 km/h 14.5 km/h 87% 0 mm 0 W/m2
06:34 9.4 °C 7.8 °C 1017.8 hPa West 7.6 km/h 14.5 km/h 87% 0 mm 0 W/m2
06:39 9.4 °C 7.8 °C 1017.8 hPa West 6.1 km/h 11.3 km/h 87% 0 mm 0 W/m2
06:44 9.4 °C 7.8 °C 1017.8 hPa West 8.2 km/h 16.1 km/h 87% 0 mm 0 W/m2
06:49 9.4 °C 7.8 °C 1018.2 hPa West 7.9 km/h 12.9 km/h 87% 0 mm 0 W/m2
06:54 9.4 °C 7.8 °C 1018.2 hPa West 6.4 km/h 11.3 km/h 87% 0 mm 0 W/m2
06:59 9.3 °C 7.7 °C 1018.2 hPa West 6.1 km/h 11.3 km/h 87% 0 mm 0 W/m2
07:04 9.3 °C 7.7 °C 1018.2 hPa West 7.4 km/h 11.3 km/h 87% 0 mm 0 W/m2
07:09 9.3 °C 7.7 °C 1018.2 hPa West 5.6 km/h 11.3 km/h 87% 0 mm 0 W/m2
07:14 9.2 °C 7.7 °C 1018.2 hPa West 3.4 km/h 11.3 km/h 87% 0 mm 0 W/m2
07:19 9.2 °C 7.7 °C 1018.5 hPa West 6.8 km/h 11.3 km/h 87% 0 mm 5 W/m2
07:24 9.3 °C 7.7 °C 1018.8 hPa West 6.6 km/h 11.3 km/h 87% 0 mm 7 W/m2
07:29 9.3 °C 7.7 °C 1018.8 hPa West 7.1 km/h 11.3 km/h 87% 0 mm 7 W/m2
07:34 9.3 °C 7.7 °C 1018.8 hPa West 6.8 km/h 12.9 km/h 87% 0 mm 11 W/m2
07:38 9.2 °C 7.6 °C 1018.8 hPa West 7.2 km/h 11.3 km/h 87% 0 mm 12 W/m2
07:44 9.2 °C 7.7 °C 1018.8 hPa West 8 km/h 12.9 km/h 87% 0 mm 14 W/m2
07:49 9.3 °C 7.7 °C 1018.8 hPa West 9.3 km/h 14.5 km/h 87% 0 mm 16 W/m2
07:54 9.6 °C 7.9 °C 1019.2 hPa West 7.9 km/h 14.5 km/h 87% 0 mm 18 W/m2
07:59 9.6 °C 7.9 °C 1019.2 hPa West 5 km/h 11.3 km/h 86.4% 0 mm 19 W/m2
08:04 9.6 °C 7.9 °C 1019.2 hPa West 6.4 km/h 11.3 km/h 86% 0 mm 19 W/m2
08:09 9.7 °C 8 °C 1019.2 hPa West 7.1 km/h 12.9 km/h 86% 0 mm 21 W/m2
08:14 9.8 °C 8.1 °C 1019.2 hPa West 7.2 km/h 16.1 km/h 86% 0 mm 23 W/m2
08:19 9.9 °C 8.2 °C 1019.2 hPa West 7.1 km/h 16.1 km/h 86% 0 mm 25 W/m2
08:24 10 °C 8.3 °C 1019.2 hPa West 8.9 km/h 14.5 km/h 86% 0 mm 26 W/m2
08:29 10.1 °C 8.3 °C 1019.5 hPa West 8.7 km/h 14.5 km/h 86% 0 mm 30 W/m2
08:34 10.2 °C 8.4 °C 1019.5 hPa West 7.9 km/h 16.1 km/h 85.8% 0 mm 32 W/m2
08:39 10.3 °C 8.4 °C 1019.5 hPa WNW 10.3 km/h 17.7 km/h 85% 0 mm 42 W/m2
08:44 10.5 °C 8.6 °C 1019.5 hPa WNW 6.6 km/h 17.7 km/h 85% 0 mm 53 W/m2
08:49 10.7 °C 8.8 °C 1019.9 hPa WNW 8.4 km/h 17.7 km/h 84.8% 0 mm 70 W/m2
08:54 11 °C 8.9 °C 1019.9 hPa WNW 6.6 km/h 11.3 km/h 84% 0 mm 90 W/m2
08:59 11.2 °C 9 °C 1020.2 hPa WNW 6.4 km/h 11.3 km/h 83.4% 0 mm 109 W/m2
09:04 11.3 °C 9 °C 1020.2 hPa WNW 6 km/h 11.3 km/h 82.8% 0 mm 120 W/m2
09:09 11.5 °C 9 °C 1020.2 hPa WNW 5.3 km/h 11.3 km/h 82% 0 mm 127 W/m2
09:14 11.6 °C 9.1 °C 1020.5 hPa WNW 9.7 km/h 12.9 km/h 82% 0 mm 137 W/m2
09:19 11.7 °C 9.2 °C 1020.5 hPa WNW 6.9 km/h 12.9 km/h 82% 0 mm 155 W/m2
09:24 11.8 °C 9.2 °C 1020.5 hPa WNW 8 km/h 14.5 km/h 81.5% 0 mm 171 W/m2
09:29 11.9 °C 9.3 °C 1020.5 hPa WNW 6.9 km/h 12.9 km/h 81.2% 0 mm 188 W/m2
09:34 12 °C 9.2 °C 1020.5 hPa West 10.1 km/h 16.1 km/h 80.6% 0 mm 206 W/m2
09:39 12.1 °C 9.2 °C 1020.5 hPa WNW 9.7 km/h 17.7 km/h 80% 0 mm 241 W/m2
09:44 12.2 °C 9.3 °C 1020.5 hPa WNW 8 km/h 16.1 km/h 79.8% 0 mm 265 W/m2
09:49 12.4 °C 9.3 °C 1020.5 hPa West 8.5 km/h 16.1 km/h 79% 0 mm 258 W/m2
09:54 12.6 °C 9.4 °C 1020.5 hPa WNW 12.2 km/h 19.3 km/h 78.6% 0 mm 265 W/m2
09:59 12.7 °C 9.4 °C 1020.5 hPa West 7.7 km/h 16.1 km/h 78% 0 mm 276 W/m2
10:04 12.8 °C 9.5 °C 1020.9 hPa WNW 9.2 km/h 17.7 km/h 77.8% 0 mm 288 W/m2
10:09 12.8 °C 9.4 °C 1020.9 hPa WNW 7.9 km/h 17.7 km/h 77% 0 mm 301 W/m2
10:14 12.9 °C 9.3 °C 1020.9 hPa WNW 10 km/h 22.5 km/h 76.2% 0 mm 315 W/m2
10:19 12.9 °C 9.2 °C 1021.2 hPa WNW 11.3 km/h 19.3 km/h 75.8% 0 mm 338 W/m2
10:24 12.9 °C 9.2 °C 1021.2 hPa WNW 10.1 km/h 22.5 km/h 75.2% 0 mm 352 W/m2
10:29 13 °C 9.3 °C 1021.2 hPa WNW 7.6 km/h 20.9 km/h 75.6% 0 mm 408 W/m2
10:34 13.3 °C 9.5 °C 1021.2 hPa WNW 10.8 km/h 20.9 km/h 75.4% 0 mm 445 W/m2
10:39 13.3 °C 9.2 °C 1021.2 hPa WNW 14.6 km/h 24.1 km/h 74% 0 mm 269 W/m2
10:44 13.2 °C 9.1 °C 1021.2 hPa NW 9 km/h 25.7 km/h 73.8% 0 mm 427 W/m2
10:49 13.4 °C 9.2 °C 1021.2 hPa WNW 11.3 km/h 17.7 km/h 73.8% 0 mm 264 W/m2
10:54 13.5 °C 9.4 °C 1021.2 hPa WNW 7.2 km/h 17.7 km/h 74% 0 mm 445 W/m2
10:59 13.7 °C 9.4 °C 1021.2 hPa WNW 11.3 km/h 19.3 km/h 73.2% 0 mm 445 W/m2
11:04 13.9 °C 9.5 °C 1021.2 hPa WNW 11.3 km/h 20.9 km/h 72.6% 0 mm 461 W/m2
11:09 13.9 °C 9.4 °C 1021.2 hPa West 11.3 km/h 19.3 km/h 72.2% 0 mm 483 W/m2
11:14 14.1 °C 9.7 °C 1021.2 hPa WNW 9 km/h 17.7 km/h 72.6% 0 mm 554 W/m2
11:19 14.1 °C 9.4 °C 1021.2 hPa WNW 12.4 km/h 24.1 km/h 71.3% 0 mm 554 W/m2
11:24 14.1 °C 9.4 °C 1021.6 hPa WNW 13 km/h 24.1 km/h 71.6% 0 mm 543 W/m2
11:29 14.2 °C 9.4 °C 1021.6 hPa WNW 16.4 km/h 25.7 km/h 70.4% 0 mm 531 W/m2
11:34 14.3 °C 9.4 °C 1021.6 hPa WNW 9.7 km/h 20.9 km/h 70% 0 mm 552 W/m2
11:39 14.3 °C 9.4 °C 1021.6 hPa NW 8 km/h 22.5 km/h 70.4% 0 mm 552 W/m2
11:44 14.6 °C 9.7 °C 1021.6 hPa West 13.2 km/h 20.9 km/h 70% 0 mm 497 W/m2
11:49 14.4 °C 9.4 °C 1021.6 hPa NW 8.7 km/h 27.4 km/h 69.8% 0 mm 504 W/m2
11:54 14.5 °C 9.5 °C 1021.9 hPa WNW 13.8 km/h 27.4 km/h 69.6% 0 mm 504 W/m2
11:59 14.4 °C 9.4 °C 1021.6 hPa WNW 12.7 km/h 20.9 km/h 69.4% 0 mm 304 W/m2
12:04 14.3 °C 9.4 °C 1021.6 hPa NW 11.9 km/h 29 km/h 69.8% 0 mm 434 W/m2
12:09 14.3 °C 9.3 °C 1021.6 hPa NW 12.9 km/h 24.1 km/h 69.4% 0 mm 330 W/m2
12:14 14.2 °C 9.3 °C 1021.6 hPa NW 12.6 km/h 24.1 km/h 70% 0 mm 267 W/m2
12:19 14.2 °C 9.4 °C 1021.9 hPa NW 11.3 km/h 20.9 km/h 70.4% 0 mm 374 W/m2
12:24 14.3 °C 9.4 °C 1021.9 hPa NW 10.6 km/h 22.5 km/h 70% 0 mm 388 W/m2
12:29 14.6 °C 9.7 °C 1021.9 hPa NW 9.3 km/h 17.7 km/h 70% 0 mm 367 W/m2
12:34 14.6 °C 9.6 °C 1021.9 hPa WNW 9.3 km/h 22.5 km/h 69.8% 0 mm 301 W/m2
12:39 14.3 °C 9.4 °C 1021.9 hPa WNW 11.6 km/h 22.5 km/h 70% 0 mm 232 W/m2
12:44 14.4 °C 9.7 °C 1021.9 hPa WNW 7.4 km/h 14.5 km/h 71% 0 mm 185 W/m2
12:49 14.4 °C 9.6 °C 1021.9 hPa WNW 10.8 km/h 14.5 km/h 70.2% 0 mm 241 W/m2
12:54 14.4 °C 9.5 °C 1022.2 hPa West 10.3 km/h 19.3 km/h 70% 0 mm 292 W/m2
12:59 14.5 °C 9.8 °C 1022.2 hPa NW 7.6 km/h 17.7 km/h 71% 0 mm 257 W/m2
13:04 14.6 °C 10 °C 1021.9 hPa WNW 8 km/h 14.5 km/h 71.4% 0 mm 287 W/m2
13:09 14.7 °C 10.2 °C 1022.2 hPa WNW 8.2 km/h 16.1 km/h 72% 0 mm 323 W/m2
13:14 14.6 °C 10.1 °C 1022.2 hPa WNW 10.6 km/h 19.3 km/h 71.8% 0 mm 220 W/m2
13:19 14.7 °C 10.1 °C 1022.2 hPa WNW 9.2 km/h 19.3 km/h 71.6% 0 mm 381 W/m2
13:24 14.8 °C 10.2 °C 1022.2 hPa WNW 11.6 km/h 19.3 km/h 71.4% 0 mm 432 W/m2
13:29 15.1 °C 10.4 °C 1022.2 hPa West 13.2 km/h 22.5 km/h 71.3% 0 mm 478 W/m2
13:34 15.3 °C 10.6 °C 1022.2 hPa WNW 14.3 km/h 22.5 km/h 71.2% 0 mm 468 W/m2
13:39 15.2 °C 10.6 °C 1022.6 hPa WNW 12.2 km/h 22.5 km/h 71% 0 mm 554 W/m2
13:44 15.2 °C 10.4 °C 1022.2 hPa WNW 16.7 km/h 27.4 km/h 70.8% 0 mm 508 W/m2
13:49 15.2 °C 10.6 °C 1022.2 hPa WNW 15.8 km/h 29 km/h 71% 0 mm 499 W/m2
13:54 15.3 °C 10.3 °C 1022.2 hPa NW 14.6 km/h 29 km/h 70% 0 mm 494 W/m2
13:59 15.2 °C 10.4 °C 1022.2 hPa WNW 11.7 km/h 24.1 km/h 70.4% 0 mm 406 W/m2
14:04 15.3 °C 10.6 °C 1022.2 hPa West 12.6 km/h 20.9 km/h 71% 0 mm 480 W/m2
14:09 15.3 °C 10.6 °C 1022.2 hPa West 10.9 km/h 24.1 km/h 71% 0 mm 436 W/m2
14:14 15 °C 10.4 °C 1022.2 hPa WNW 16.4 km/h 29 km/h 71.4% 0 mm 427 W/m2
14:19 14.9 °C 10.4 °C 1022.2 hPa NW 19 km/h 30.6 km/h 72% 0 mm 582 W/m2
14:24 15.2 °C 10.7 °C 1022.2 hPa WNW 11.6 km/h 24.1 km/h 71.6% 0 mm 338 W/m2
14:29 15 °C 10.3 °C 1022.2 hPa WNW 15.8 km/h 24.1 km/h 71.2% 0 mm 199 W/m2
14:34 14.8 °C 10.3 °C 1022.2 hPa West 17.5 km/h 25.7 km/h 72% 0 mm 230 W/m2
14:39 14.8 °C 10.3 °C 1022.2 hPa West 19 km/h 27.4 km/h 72% 0 mm 339 W/m2
14:44 15 °C 10.6 °C 1022.2 hPa WNW 14.3 km/h 25.7 km/h 72.6% 0 mm 369 W/m2
14:49 15.1 °C 10.7 °C 1022.6 hPa WNW 10 km/h 24.1 km/h 72.8% 0 mm 359 W/m2
14:54 15.1 °C 10.8 °C 1022.2 hPa WNW 9.8 km/h 19.3 km/h 72.8% 0 mm 392 W/m2
14:59 15.3 °C 10.9 °C 1022.2 hPa NW 12.6 km/h 20.9 km/h 73% 0 mm 323 W/m2
15:04 15.3 °C 10.9 °C 1022.2 hPa NW 9.7 km/h 22.5 km/h 72.4% 0 mm 397 W/m2
15:09 15.5 °C 10.9 °C 1022.2 hPa WNW 13.5 km/h 25.7 km/h 71.6% 0 mm 397 W/m2
15:14 15.5 °C 10.7 °C 1022.2 hPa WNW 18.7 km/h 22.5 km/h 71% 0 mm 499 W/m2
15:19 15.6 °C 10.7 °C 1022.2 hPa WNW 14.2 km/h 24.1 km/h 71% 0 mm 496 W/m2
15:24 15.8 °C 10.9 °C 1022.2 hPa WNW 10.1 km/h 24.1 km/h 71% 0 mm 487 W/m2
15:29 15.8 °C 10.8 °C 1022.2 hPa West 10.8 km/h 22.5 km/h 70% 0 mm 468 W/m2
15:34 15.9 °C 10.9 °C 1022.2 hPa West 14.8 km/h 20.9 km/h 70% 0 mm 457 W/m2
15:39 16 °C 11 °C 1022.6 hPa West 14 km/h 20.9 km/h 70% 0 mm 431 W/m2
15:44 16.1 °C 11.1 °C 1022.6 hPa WNW 12.9 km/h 24.1 km/h 70% 0 mm 439 W/m2
15:49 15.8 °C 10.7 °C 1022.6 hPa NW 13.2 km/h 24.1 km/h 69.2% 0 mm 424 W/m2
15:54 15.9 °C 10.8 °C 1022.6 hPa WNW 11.9 km/h 22.5 km/h 69.6% 0 mm 378 W/m2
15:59 15.9 °C 10.9 °C 1022.6 hPa NW 11.9 km/h 19.3 km/h 70% 0 mm 367 W/m2
16:04 15.8 °C 10.9 °C 1022.6 hPa WNW 15.8 km/h 25.7 km/h 70.4% 0 mm 367 W/m2
16:09 15.9 °C 11.2 °C 1022.6 hPa WNW 9.3 km/h 25.7 km/h 71% 0 mm 404 W/m2
16:14 16.1 °C 11.2 °C 1022.6 hPa WNW 9.3 km/h 17.7 km/h 70.4% 0 mm 327 W/m2
16:19 15.8 °C 10.9 °C 1022.6 hPa WNW 12.1 km/h 17.7 km/h 70.6% 0 mm 211 W/m2
16:24 15.7 °C 10.8 °C 1022.6 hPa WNW 9.7 km/h 19.3 km/h 71% 0 mm 348 W/m2
16:29 15.8 °C 11 °C 1022.6 hPa West 11.6 km/h 19.3 km/h 71% 0 mm 366 W/m2
16:34 15.9 °C 11.2 °C 1022.6 hPa WNW 10 km/h 17.7 km/h 71% 0 mm 345 W/m2
16:39 15.9 °C 11.1 °C 1022.9 hPa West 10.9 km/h 17.7 km/h 70.8% 0 mm 279 W/m2
16:44 15.8 °C 11.1 °C 1022.9 hPa West 7.2 km/h 16.1 km/h 71% 0 mm 311 W/m2
16:49 16.1 °C 11.4 °C 1022.9 hPa West 4.3 km/h 8 km/h 71.8% 0 mm 251 W/m2
16:54 16.2 °C 11.6 °C 1022.9 hPa West 7.7 km/h 14.5 km/h 72% 0 mm 253 W/m2
16:59 16.1 °C 11.5 °C 1022.9 hPa West 5.1 km/h 11.3 km/h 72% 0 mm 236 W/m2
17:04 16.1 °C 11.6 °C 1022.9 hPa West 7.7 km/h 11.3 km/h 72.8% 0 mm 171 W/m2
17:09 15.9 °C 11.5 °C 1022.9 hPa West 10.5 km/h 14.5 km/h 73% 0 mm 214 W/m2
17:14 16 °C 11.6 °C 1022.9 hPa West 10.9 km/h 16.1 km/h 72.8% 0 mm 200 W/m2
17:19 15.9 °C 11.2 °C 1022.9 hPa WNW 9.7 km/h 24.1 km/h 71.6% 0 mm 192 W/m2
17:24 15.9 °C 11.2 °C 1022.9 hPa WNW 8.7 km/h 16.1 km/h 71.2% 0 mm 148 W/m2
17:29 15.8 °C 10.9 °C 1023.2 hPa WNW 8.4 km/h 16.1 km/h 70.6% 0 mm 120 W/m2
17:34 15.6 °C 10.8 °C 1023.2 hPa West 6.4 km/h 16.1 km/h 71% 0 mm 74 W/m2
17:39 15.4 °C 10.7 °C 1023.2 hPa West 5.5 km/h 14.5 km/h 71.2% 0 mm 39 W/m2
17:44 15.1 °C 10.6 °C 1023.2 hPa West 6 km/h 11.3 km/h 72% 0 mm 28 W/m2
17:49 14.8 °C 10.4 °C 1023.2 hPa West 2.7 km/h 12.9 km/h 72.6% 0 mm 25 W/m2
17:54 14.7 °C 10.4 °C 1023.2 hPa West 4 km/h 6.4 km/h 73% 0 mm 25 W/m2
17:59 14.6 °C 10.3 °C 1023.2 hPa West 1.3 km/h 4.8 km/h 73.2% 0 mm 19 W/m2
18:04 14.6 °C 10.4 °C 1023.2 hPa West 0.6 km/h 3.2 km/h 73.6% 0 mm 18 W/m2
18:09 14.4 °C 10.3 °C 1023.2 hPa Calm     74% 0 mm 18 W/m2
18:14 14.4 °C 10.3 °C 1023.2 hPa Calm     74% 0 mm 14 W/m2
18:19 14.4 °C 10.4 °C 1023.6 hPa Calm     74.4% 0 mm 14 W/m2
18:23 14.3 °C 10.4 °C 1023.6 hPa Calm     75% 0 mm 12 W/m2
18:29 14.2 °C 10.3 °C 1023.6 hPa West 1 km/h 4.8 km/h 75.2% 0 mm 11 W/m2
18:34 14.1 °C 10.4 °C 1023.6 hPa West 2.9 km/h 6.4 km/h 76% 0 mm 11 W/m2
18:39 14 °C 10.5 °C 1023.6 hPa West 3.2 km/h 4.8 km/h 77% 0 mm 5 W/m2
18:44 13.9 °C 10.4 °C 1023.6 hPa West 0.6 km/h 4.8 km/h 77% 0 mm 0 W/m2
18:49 13.9 °C 10.4 °C 1023.6 hPa West 1.6 km/h 3.2 km/h 77% 0 mm 0 W/m2
18:54 13.9 °C 10.4 °C 1023.6 hPa West 1 km/h 4.8 km/h 77% 0 mm 0 W/m2
18:59 13.9 °C 10.5 °C 1023.9 hPa West 1.3 km/h 4.8 km/h 77.6% 0 mm 0 W/m2
19:04 13.9 °C 10.6 °C 1023.9 hPa Calm     78% 0 mm 0 W/m2
19:09 13.9 °C 10.7 °C 1023.9 hPa Calm     78% 0 mm 0 W/m2
19:14 13.9 °C 10.7 °C 1023.9 hPa West 0.6 km/h 3.2 km/h 78% 0 mm 0 W/m2
19:19 13.9 °C 10.7 °C 1023.9 hPa West 1 km/h 3.2 km/h 78.4% 0 mm 0 W/m2
19:24 13.8 °C 10.7 °C 1023.9 hPa Calm     79% 0 mm 0 W/m2
19:29 13.8 °C 10.7 °C 1023.9 hPa Calm     79% 0 mm 0 W/m2
19:34 13.8 °C 10.7 °C 1023.9 hPa Calm     79% 0 mm 0 W/m2
19:39 13.8 °C 10.7 °C 1023.9 hPa Calm     79% 0 mm 0 W/m2
19:44 13.8 °C 10.8 °C 1023.9 hPa Calm     79.2% 0 mm 0 W/m2
19:49 13.8 °C 10.9 °C 1023.9 hPa Calm     80% 0 mm 0 W/m2
19:54 13.7 °C 10.8 °C 1023.9 hPa Calm     80% 0 mm 0 W/m2
19:59 13.7 °C 11 °C 1023.9 hPa Calm   1.6 km/h 81% 0 mm 0 W/m2
20:04 13.7 °C 11 °C 1023.9 hPa West 0.3 km/h 3.2 km/h 81% 0 mm 0 W/m2
20:09 13.6 °C 10.9 °C 1023.9 hPa West 0.3 km/h 1.6 km/h 81% 0 mm 0 W/m2
20:14 13.6 °C 11.1 °C 1023.9 hPa West 0.6 km/h 3.2 km/h 81.8% 0 mm 0 W/m2
20:19 13.6 °C 11.1 °C 1023.9 hPa Calm   1.6 km/h 82% 0 mm 0 W/m2
20:24 13.6 °C 11.1 °C 1023.9 hPa Calm     82% 0 mm 0 W/m2
20:29 13.6 °C 11.1 °C 1023.9 hPa Calm     82% 0 mm 0 W/m2
20:34 13.6 °C 11.3 °C 1023.9 hPa Calm     83% 0 mm 0 W/m2
20:39 13.6 °C 11.3 °C 1023.9 hPa Calm     83% 0 mm 0 W/m2
20:44 13.6 °C 11.3 °C 1023.9 hPa Calm     83% 0 mm 0 W/m2
20:49 13.6 °C 11.3 °C 1023.9 hPa Calm     83% 0 mm 0 W/m2
20:54 13.6 °C 11.3 °C 1023.9 hPa Calm     83% 0 mm 0 W/m2
20:59 13.6 °C 11.3 °C 1023.9 hPa Calm     83% 0 mm 0 W/m2
21:04 13.5 °C 11.2 °C 1023.9 hPa Calm     83% 0 mm 0 W/m2
21:09 13.4 °C 11.2 °C 1023.9 hPa Calm     83.6% 0 mm 0 W/m2
21:14 13.4 °C 11.2 °C 1023.9 hPa Calm     84% 0 mm 0 W/m2
21:19 13.4 °C 11.2 °C 1023.9 hPa Calm     84% 0 mm 0 W/m2
21:24 13.5 °C 11.3 °C 1023.9 hPa Calm     84% 0 mm 0 W/m2
21:29 13.5 °C 11.3 °C 1023.9 hPa Calm     84% 0 mm 0 W/m2
21:34 13.4 °C 11.2 °C 1023.9 hPa Calm     84% 0 mm 0 W/m2
21:39 13.4 °C 11.2 °C 1023.9 hPa Calm     84% 0 mm 0 W/m2
21:44 13.4 °C 11.2 °C 1023.9 hPa Calm     84% 0 mm 0 W/m2
21:49 13.4 °C 11.2 °C 1023.9 hPa Calm     84% 0 mm 0 W/m2
21:54 13.4 °C 11.4 °C 1023.9 hPa Calm     85% 0 mm 0 W/m2
21:59 13.3 °C 11.2 °C 1023.9 hPa West 2.6 km/h 3.2 km/h 84.8% 0 mm 0 W/m2
22:04 13.2 °C 11.2 °C 1023.9 hPa West 1.8 km/h 3.2 km/h 85% 0 mm 0 W/m2
22:09 13.1 °C 11.1 °C 1023.9 hPa West 2.9 km/h 4.8 km/h 85% 0 mm 0 W/m2
22:14 12.9 °C 10.9 °C 1023.9 hPa West 2.6 km/h 4.8 km/h 85% 0 mm 0 W/m2
22:19 12.8 °C 10.9 °C 1023.9 hPa West 1.1 km/h 3.2 km/h 85.5% 0 mm 0 W/m2
22:24 12.7 °C 10.9 °C 1023.9 hPa Calm   1.6 km/h 86% 0 mm 0 W/m2
22:29 12.7 °C 10.8 °C 1023.9 hPa West 1 km/h 3.2 km/h 86% 0 mm 0 W/m2
22:34 12.6 °C 10.8 °C 1023.9 hPa West 3.2 km/h 4.8 km/h 86% 0 mm 0 W/m2
22:39 12.4 °C 10.7 °C 1023.9 hPa West 3.2 km/h 4.8 km/h 86.4% 0 mm 0 W/m2
22:44 12.4 °C 10.8 °C 1023.9 hPa West 0.6 km/h 3.2 km/h 87% 0 mm 0 W/m2
22:49 12.4 °C 10.8 °C 1023.9 hPa Calm     87% 0 mm 0 W/m2
22:54 12.4 °C 10.8 °C 1023.9 hPa Calm     87% 0 mm 0 W/m2
22:58 12.3 °C 10.7 °C 1024.3 hPa Calm     87% 0 mm 0 W/m2
23:04 12.3 °C 10.7 °C 1024.3 hPa Calm     87% 0 mm 0 W/m2
23:09 12.3 °C 10.7 °C 1024.3 hPa Calm     87% 0 mm 0 W/m2
23:14 12.3 °C 10.7 °C 1024.3 hPa Calm     87% 0 mm 0 W/m2
23:19 12.3 °C 10.7 °C 1024.3 hPa Calm     87% 0 mm 0 W/m2
23:24 12.3 °C 10.8 °C 1024.3 hPa Calm   1.6 km/h 87.2% 0 mm 0 W/m2
23:29 12.3 °C 10.9 °C 1024.3 hPa Calm   1.6 km/h 88% 0 mm 0 W/m2
23:34 12.3 °C 10.9 °C 1024.3 hPa Calm     88% 0 mm 0 W/m2
23:39 12.3 °C 10.9 °C 1024.3 hPa West 0.3 km/h 3.2 km/h 88% 0 mm 0 W/m2
23:44 12.3 °C 10.9 °C 1024.3 hPa Calm   3.2 km/h 88% 0 mm 0 W/m2
23:49 12.4 °C 11 °C 1024.3 hPa Calm     88% 0 mm 0 W/m2
23:54 12.4 °C 11 °C 1024.3 hPa Calm     88% 0 mm 0 W/m2
23:59 12.5 °C 11.1 °C 1024.3 hPa West 2.1 km/h 4.8 km/h 88% 0 mm 0 W/m2
Bath Spa Weather
Compliments of Weather Underground - 2 mb